Time;durP1;ratioP1;P1;durP2;ratioP2;P2;SDS_P1;SDS_P2;PMS_P1;PMS_P2;Temp;Humidity;BMP_temperature;BMP_pressure;BME280_temperature;BME280_humidity;BME280_pressure;Samples;Min_cycle;Max_cycle;Signal;HPM_P1;HPM_P2
2021/12/12 00:00:26;;;;;;;4.45;3.13;;;23.30;35.70;;;;;;5005493;28;20454;-47
2021/12/12 00:02:58;;;;;;;4.53;3.10;;;23.30;35.70;;;;;;5023064;28;20510;-46
2021/12/12 00:05:30;;;;;;;5.10;3.42;;;23.30;35.70;;;;;;5024686;28;20068;-46
2021/12/12 00:07:56;;;;;;;4.55;3.03;;;23.20;35.60;;;;;;5023392;28;20026;-46
2021/12/12 00:10:26;;;;;;;4.40;3.10;;;23.20;35.60;;;;;;5023145;28;20116;-46
2021/12/12 00:12:56;;;;;;;4.32;2.75;;;23.20;35.60;;;;;;5022901;28;20029;-46
2021/12/12 00:15:22;;;;;;;4.13;3.08;;;23.20;35.60;;;;;;5023249;28;20314;-46
2021/12/12 00:17:48;;;;;;;4.18;2.88;;;23.20;35.60;;;;;;5024350;28;20100;-45
2021/12/12 00:20:19;;;;;;;4.18;3.00;;;23.20;35.60;;;;;;5024266;28;20026;-46
2021/12/12 00:22:46;;;;;;;4.40;3.20;;;23.20;35.70;;;;;;5024042;28;20045;-45
2021/12/12 00:25:14;;;;;;;4.35;3.10;;;23.20;35.60;;;;;;5024863;28;20117;-45
2021/12/12 00:27:40;;;;;;;4.18;2.80;;;23.10;35.70;;;;;;5023718;28;20028;-47
2021/12/12 00:30:08;;;;;;;3.97;2.80;;;23.10;35.60;;;;;;5024989;28;20033;-45
2021/12/12 00:32:39;;;;;;;3.92;2.75;;;23.10;35.70;;;;;;5023910;28;20038;-46
2021/12/12 00:35:11;;;;;;;4.43;3.13;;;23.10;35.60;;;;;;5024170;28;20033;-45
2021/12/12 00:37:37;;;;;;;3.92;2.58;;;23.10;35.60;;;;;;5023809;28;20073;-46
2021/12/12 00:40:11;;;;;;;5.00;3.10;;;23.10;35.60;;;;;;5023347;28;20061;-46
2021/12/12 00:42:38;;;;;;;4.28;2.80;;;23.10;35.60;;;;;;5023275;28;20030;-46
2021/12/12 00:45:13;;;;;;;4.22;2.95;;;23.10;35.70;;;;;;5023975;28;20026;-47
2021/12/12 00:47:43;;;;;;;5.05;3.05;;;23.10;35.70;;;;;;5024649;28;20056;-45
2021/12/12 00:50:19;;;;;;;4.18;2.80;;;23.10;35.70;;;;;;5031486;28;20107;-47
2021/12/12 00:52:47;;;;;;;4.00;2.75;;;23.00;35.50;;;;;;5044136;28;20057;-46
2021/12/12 00:55:14;;;;;;;4.60;2.83;;;23.00;35.40;;;;;;5044447;28;20024;-46
2021/12/12 00:57:40;;;;;;;4.00;2.90;;;23.00;35.50;;;;;;5032457;28;20033;-47
2021/12/12 01:00:09;;;;;;;4.80;3.13;;;23.00;35.40;;;;;;5024445;28;20374;-46
2021/12/12 01:02:35;;;;;;;4.10;3.00;;;23.00;35.40;;;;;;5023310;28;20530;-46
2021/12/12 01:05:04;;;;;;;4.60;3.03;;;23.00;35.40;;;;;;5024132;28;20052;-47
2021/12/12 01:07:35;;;;;;;4.32;2.88;;;22.90;35.40;;;;;;5027526;28;20026;-48
2021/12/12 01:10:09;;;;;;;4.43;2.83;;;23.00;35.40;;;;;;5027725;28;20025;-45
2021/12/12 01:12:37;;;;;;;4.72;3.03;;;22.90;35.30;;;;;;5027347;28;20064;-46
2021/12/12 01:15:09;;;;;;;4.25;2.97;;;22.90;35.30;;;;;;5027851;28;20527;-46
2021/12/12 01:17:40;;;;;;;4.45;2.90;;;22.90;35.30;;;;;;5026355;28;20170;-45
2021/12/12 01:20:31;;;;;;;4.80;3.63;;;22.90;35.30;;;;;;5026635;28;20549;-46
2021/12/12 01:23:06;;;;;;;4.30;2.75;;;22.90;35.20;;;;;;5026609;28;20269;-45
2021/12/12 01:25:36;;;;;;;4.50;3.10;;;22.80;35.10;;;;;;5027104;28;20032;-45
2021/12/12 01:28:03;;;;;;;4.38;2.65;;;22.80;35.10;;;;;;5025093;28;20029;-47
2021/12/12 01:30:29;;;;;;;4.57;3.33;;;22.80;35.00;;;;;;5026406;28;20485;-44
2021/12/12 01:32:56;;;;;;;4.60;3.22;;;22.80;35.10;;;;;;5026948;28;20033;-46
2021/12/12 01:35:24;;;;;;;4.47;3.13;;;22.80;35.00;;;;;;5027075;28;20075;-46
2021/12/12 01:40:52;;;;;;;4.10;3.00;;;22.80;35.10;;;;;;5027050;28;20039;-46
2021/12/12 01:43:21;;;;;;;4.60;3.10;;;22.80;35.00;;;;;;5027643;28;20029;-45
2021/12/12 01:45:52;;;;;;;4.18;2.88;;;22.80;35.10;;;;;;5027417;28;20513;-45
2021/12/12 01:48:25;;;;;;;4.63;3.10;;;22.70;35.10;;;;;;5027590;28;20061;-47
2021/12/12 01:50:55;;;;;;;4.10;3.03;;;22.70;35.10;;;;;;5040135;28;20025;-48
2021/12/12 01:53:26;;;;;;;3.70;2.63;;;22.70;35.10;;;;;;5047300;28;20031;-47
2021/12/12 01:56:02;;;;;;;3.92;2.70;;;22.70;35.10;;;;;;5047568;28;20447;-47
2021/12/12 01:58:31;;;;;;;3.78;2.40;;;22.70;35.10;;;;;;5012440;28;20022;-47
2021/12/12 02:01:03;;;;;;;3.88;2.83;;;22.70;35.20;;;;;;5007374;28;20030;-46
2021/12/12 02:03:32;;;;;;;3.60;2.55;;;22.60;35.00;;;;;;5007192;28;20396;-48
2021/12/12 02:06:00;;;;;;;4.05;3.15;;;22.70;35.10;;;;;;5007834;28;20079;-45
2021/12/12 02:08:29;;;;;;;4.05;2.55;;;22.70;35.20;;;;;;5007601;28;20029;-47
2021/12/12 02:11:01;;;;;;;3.80;2.60;;;22.70;35.10;;;;;;5006284;28;20049;-47
2021/12/12 02:13:28;;;;;;;;;;;22.60;35.10;;;;;;5003889;28;20580;-49
2021/12/12 02:15:58;;;;;;;3.92;2.70;;;22.60;35.10;;;;;;5023069;28;20122;-46
2021/12/12 02:18:32;;;;;;;3.45;2.35;;;22.60;35.10;;;;;;5025542;28;20459;-46
2021/12/12 02:37:05;;;;;;;3.50;2.17;;;22.50;35.20;;;;;;5027005;28;20397;-47
2021/12/12 02:39:31;;;;;;;4.40;2.80;;;22.60;35.20;;;;;;5026749;28;20033;-48
2021/12/12 02:42:03;;;;;;;3.80;2.65;;;22.50;35.20;;;;;;5020758;28;20072;-47
2021/12/12 02:44:32;;;;;;;3.92;2.30;;;22.50;35.20;;;;;;5013019;28;20029;-46
2021/12/12 02:47:00;;;;;;;3.67;2.38;;;22.50;35.30;;;;;;5026339;28;20033;-46
2021/12/12 02:49:54;;;;;;;3.67;2.40;;;22.50;35.30;;;;;;5027342;28;20472;-46
2021/12/12 02:52:21;;;;;;;;;;;22.50;35.30;;;;;;5044889;28;20029;-46
2021/12/12 02:54:47;;;;;;;4.20;2.45;;;22.50;35.30;;;;;;5045864;28;19908;-45
2021/12/12 02:57:14;;;;;;;3.35;2.25;;;22.50;35.30;;;;;;5032749;28;20040;-47
2021/12/12 02:59:46;;;;;;;3.40;2.10;;;22.50;35.40;;;;;;5006451;28;20517;-46
2021/12/12 03:02:23;;;;;;;3.92;2.30;;;22.50;35.40;;;;;;5005688;28;20490;-45
2021/12/12 03:04:51;;;;;;;3.53;2.35;;;22.40;35.30;;;;;;5006575;28;20061;-46
2021/12/12 03:07:17;;;;;;;3.72;2.15;;;22.40;35.30;;;;;;5006211;28;20049;-47
2021/12/12 03:09:46;;;;;;;3.42;2.30;;;22.50;35.40;;;;;;5006298;28;20155;-46
2021/12/12 03:12:17;;;;;;;3.72;2.47;;;22.40;35.40;;;;;;5011270;28;20486;-45
2021/12/12 03:14:45;;;;;;;3.40;2.13;;;22.40;35.40;;;;;;5026019;28;20037;-45
2021/12/12 03:17:16;;;;;;;3.70;2.40;;;22.40;35.40;;;;;;5025440;28;20494;-47
2021/12/12 03:19:49;;;;;;;3.38;2.20;;;22.40;35.40;;;;;;5026127;28;20109;-44
2021/12/12 03:22:16;;;;;;;3.60;2.40;;;22.40;35.40;;;;;;5025944;28;20540;-46
2021/12/12 03:24:43;;;;;;;3.25;1.98;;;22.40;35.40;;;;;;5025803;28;20242;-45
2021/12/12 03:27:10;;;;;;;3.28;2.20;;;22.40;35.50;;;;;;5025783;28;20029;-45
2021/12/12 03:29:37;;;;;;;3.00;2.00;;;22.40;35.40;;;;;;5025497;28;20249;-46
2021/12/12 03:32:08;;;;;;;3.88;2.28;;;22.40;35.50;;;;;;5025572;28;20025;-47
2021/12/12 03:34:37;;;;;;;3.28;2.08;;;22.40;35.50;;;;;;5025696;28;20025;-46
2021/12/12 03:37:06;;;;;;;2.83;1.85;;;22.30;35.50;;;;;;5025253;28;20113;-45
2021/12/12 03:39:36;;;;;;;3.30;2.20;;;22.40;35.50;;;;;;5025529;28;20116;-46
2021/12/12 03:42:06;;;;;;;3.28;2.20;;;22.30;35.60;;;;;;5024555;28;20083;-48
2021/12/12 03:44:34;;;;;;;3.47;2.10;;;22.30;35.80;;;;;;5025433;28;20035;-46
2021/12/12 03:47:10;;;;;;;2.92;1.83;;;22.30;35.80;;;;;;5025318;28;20029;-47
2021/12/12 03:49:37;;;;;;;3.17;2.15;;;22.30;35.90;;;;;;5028150;28;20116;-46
2021/12/12 03:52:07;;;;;;;3.50;2.20;;;22.30;35.90;;;;;;5045091;28;20217;-45
2021/12/12 03:54:33;;;;;;;3.65;2.22;;;22.30;35.90;;;;;;5045000;28;20429;-46
2021/12/12 03:56:59;;;;;;;3.00;2.00;;;22.30;36.10;;;;;;5038347;28;20064;-47
2021/12/12 03:59:25;;;;;;;2.92;1.90;;;22.30;35.90;;;;;;5004190;28;20073;-46
2021/12/12 04:01:53;;;;;;;2.97;2.03;;;22.30;35.90;;;;;;5005085;28;20096;-47
2021/12/12 04:04:29;;;;;;;3.45;2.20;;;22.30;36.00;;;;;;5005150;28;20030;-46
2021/12/12 04:06:56;;;;;;;2.80;1.77;;;22.30;35.90;;;;;;5005680;28;20040;-45
2021/12/12 04:09:22;;;;;;;3.22;2.15;;;22.30;36.00;;;;;;5005427;28;20041;-46
2021/12/12 04:12:01;;;;;;;3.05;1.63;;;22.30;36.00;;;;;;5005214;28;20034;-47
2021/12/12 04:14:28;;;;;;;3.30;1.88;;;22.20;35.80;;;;;;5011198;28;20091;-46
2021/12/12 04:16:58;;;;;;;3.20;1.92;;;22.30;35.80;;;;;;5024893;28;20040;-46
2021/12/12 04:19:28;;;;;;;3.22;1.90;;;22.20;35.70;;;;;;5025032;28;20025;-46
2021/12/12 04:21:53;;;;;;;2.90;1.73;;;22.20;35.70;;;;;;5024773;28;20061;-51
2021/12/12 04:24:29;;;;;;;3.22;1.90;;;22.20;35.70;;;;;;5023705;28;20260;-46
2021/12/12 04:26:57;;;;;;;2.97;1.77;;;22.20;35.60;;;;;;5024671;28;20030;-46
2021/12/12 04:29:32;;;;;;;2.85;1.85;;;22.20;35.60;;;;;;5025332;28;20033;-45
2021/12/12 04:32:02;;;;;;;3.38;2.08;;;22.20;35.60;;;;;;5024489;28;20030;-46
2021/12/12 04:34:31;;;;;;;3.55;2.17;;;22.20;35.60;;;;;;5024992;28;20116;-46
2021/12/12 04:37:00;;;;;;;2.85;1.80;;;22.20;35.70;;;;;;5023428;28;20460;-45
2021/12/12 04:39:37;;;;;;;2.95;1.80;;;22.20;35.70;;;;;;5024816;28;20057;-46
2021/12/12 04:42:25;;;;;;;2.50;1.65;;;22.20;35.70;;;;;;5027147;28;20029;-46
2021/12/12 04:45:11;;;;;;;2.65;1.50;;;22.20;35.70;;;;;;5028894;28;20057;-46
2021/12/12 04:51:08;;;;;;;3.08;1.60;;;22.20;35.80;;;;;;5042303;28;20534;-46
2021/12/12 04:53:46;;;;;;;3.28;1.65;;;22.10;35.70;;;;;;5048485;28;20028;-46
2021/12/12 04:56:28;;;;;;;3.25;2.08;;;22.10;35.80;;;;;;5048541;28;20025;-47
2021/12/12 04:59:21;;;;;;;3.08;2.00;;;22.10;35.80;;;;;;5048399;28;20036;-47
2021/12/12 05:02:28;;;;;;;2.97;1.75;;;22.10;35.80;;;;;;5047681;28;20079;-47
2021/12/12 05:05:07;;;;;;;3.08;1.70;;;22.10;35.80;;;;;;5045477;28;20065;-46
2021/12/12 05:07:56;;;;;;;2.45;1.40;;;22.10;35.80;;;;;;5046385;28;20108;-46
2021/12/12 05:10:50;;;;;;;2.60;1.48;;;22.10;35.90;;;;;;5036360;28;20037;-46
2021/12/12 05:13:34;;;;;;;2.88;1.60;;;22.10;35.90;;;;;;5047799;28;20037;-46
2021/12/12 05:16:27;;;;;;;2.75;1.50;;;22.00;35.80;;;;;;5028593;28;20469;-45
2021/12/12 05:19:01;;;;;;;2.53;1.40;;;22.00;35.80;;;;;;5028160;28;20041;-45
2021/12/12 05:21:31;;;;;;;2.95;1.60;;;22.00;35.80;;;;;;5026443;28;20017;-46
2021/12/12 05:24:01;;;;;;;2.47;1.30;;;22.00;35.80;;;;;;5027757;28;20021;-45
2021/12/12 05:26:32;;;;;;;3.10;1.70;;;22.00;35.80;;;;;;5027457;28;20101;-45
2021/12/12 05:29:09;;;;;;;2.58;1.50;;;22.00;35.80;;;;;;5027681;28;20112;-46
2021/12/12 05:31:35;;;;;;;2.50;1.63;;;22.00;35.70;;;;;;5027452;28;20033;-45
2021/12/12 05:34:02;;;;;;;2.88;1.60;;;22.00;35.70;;;;;;5027771;28;20106;-45
2021/12/12 05:36:29;;;;;;;2.95;1.77;;;22.00;35.80;;;;;;5028073;28;20208;-46
2021/12/12 05:38:59;;;;;;;2.60;1.55;;;22.00;35.80;;;;;;5027558;28;20112;-45
2021/12/12 05:41:26;;;;;;;2.95;1.60;;;22.00;35.80;;;;;;5028010;28;20033;-45
2021/12/12 05:43:56;;;;;;;2.30;1.33;;;22.00;35.80;;;;;;5027275;28;20035;-46
2021/12/12 05:46:23;;;;;;;2.60;1.40;;;22.00;35.80;;;;;;5027502;28;20071;-46
2021/12/12 05:48:50;;;;;;;3.00;1.60;;;22.00;35.80;;;;;;5027644;28;20438;-46
2021/12/12 05:51:16;;;;;;;2.97;1.60;;;22.00;35.80;;;;;;5027434;28;20123;-45
2021/12/12 05:53:43;;;;;;;2.78;1.58;;;22.00;35.80;;;;;;5025723;28;20128;-45
2021/12/12 05:56:10;;;;;;;3.10;1.52;;;22.00;35.80;;;;;;5027404;28;20037;-46
2021/12/12 05:58:36;;;;;;;2.47;1.40;;;22.00;35.80;;;;;;5027497;28;20108;-46
2021/12/12 06:01:10;;;;;;;2.28;1.20;;;22.00;35.70;;;;;;5027016;28;20201;-46
2021/12/12 06:03:39;;;;;;;2.70;1.40;;;22.00;35.70;;;;;;5026963;28;20021;-45
2021/12/12 06:06:10;;;;;;;3.15;1.70;;;22.00;35.70;;;;;;5027405;28;20426;-46
2021/12/12 06:08:36;;;;;;;2.90;1.55;;;22.00;35.70;;;;;;5027258;28;20105;-46
2021/12/12 06:11:04;;;;;;;2.70;1.55;;;22.00;35.80;;;;;;5027120;28;20142;-46
2021/12/12 06:13:31;;;;;;;3.33;1.40;;;22.00;35.90;;;;;;5025238;28;20310;-47
2021/12/12 06:16:00;;;;;;;2.90;1.83;;;22.00;36.00;;;;;;5026338;28;20088;-46
2021/12/12 06:18:28;;;;;;;2.95;1.50;;;22.00;36.00;;;;;;5026687;28;20021;-47
2021/12/12 06:20:55;;;;;;;2.42;1.25;;;22.00;36.00;;;;;;5027007;28;20521;-44
2021/12/12 06:23:21;;;;;;;2.38;1.00;;;21.90;36.10;;;;;;5026235;28;20026;-47
2021/12/12 06:25:49;;;;;;;2.80;1.55;;;22.00;36.10;;;;;;5026967;28;20025;-45
2021/12/12 06:28:18;;;;;;;4.05;1.58;;;22.00;36.10;;;;;;5026995;28;20476;-45
2021/12/12 06:30:45;;;;;;;2.90;1.50;;;22.00;36.20;;;;;;5026616;28;20474;-46
2021/12/12 06:33:11;;;;;;;2.65;1.30;;;22.00;36.30;;;;;;5026349;28;20176;-46
2021/12/12 06:35:37;;;;;;;3.13;1.42;;;22.10;36.30;;;;;;5026599;28;20033;-47
2021/12/12 06:38:06;;;;;;;2.47;1.42;;;22.10;36.30;;;;;;5026266;28;20132;-47
2021/12/12 06:40:33;;;;;;;2.67;1.40;;;22.20;36.30;;;;;;5038600;28;20040;-46
2021/12/12 06:43:00;;;;;;;2.17;1.27;;;22.20;36.30;;;;;;5006681;28;21029;-45
2021/12/12 06:45:26;;;;;;;2.40;1.38;;;22.20;36.20;;;;;;5020731;28;20025;-47
2021/12/12 06:47:54;;;;;;;2.58;1.17;;;22.30;36.30;;;;;;5026565;28;20107;-45
2021/12/12 06:50:21;;;;;;;2.25;1.40;;;22.40;36.20;;;;;;5026101;28;20018;-46
2021/12/12 06:52:47;;;;;;;2.20;1.40;;;22.40;36.10;;;;;;5025939;28;20029;-45
2021/12/12 06:55:14;;;;;;;1.98;1.10;;;22.50;36.20;;;;;;5024395;28;20504;-47
2021/12/12 06:57:41;;;;;;;2.88;0.95;;;22.50;36.10;;;;;;5006413;28;20088;-45
2021/12/12 07:00:12;;;;;;;2.28;0.90;;;22.60;36.00;;;;;;5005857;28;20135;-46
2021/12/12 07:02:41;;;;;;;2.70;1.42;;;22.70;36.00;;;;;;5005582;28;20030;-46
2021/12/12 07:05:08;;;;;;;2.25;1.20;;;22.80;35.90;;;;;;5004901;28;20552;-45
2021/12/12 07:07:34;;;;;;;2.10;1.17;;;22.80;35.80;;;;;;5005527;28;20022;-46
2021/12/12 07:10:01;;;;;;;2.78;1.08;;;22.90;35.90;;;;;;5005588;28;20560;-47
2021/12/12 07:12:26;;;;;;;2.17;1.20;;;23.00;35.80;;;;;;5005054;28;20482;-46
2021/12/12 07:14:54;;;;;;;2.13;1.20;;;23.00;35.60;;;;;;5015283;28;20061;-46
2021/12/12 07:17:21;;;;;;;2.58;1.30;;;23.00;35.50;;;;;;5025390;28;20231;-46
2021/12/12 07:19:47;;;;;;;2.13;1.10;;;23.10;35.60;;;;;;5025852;28;20041;-46
2021/12/12 07:22:14;;;;;;;1.85;1.02;;;23.20;35.50;;;;;;5025945;28;20031;-46
2021/12/12 07:24:42;;;;;;;1.67;0.80;;;23.20;35.40;;;;;;5025688;28;20083;-48
2021/12/12 07:27:09;;;;;;;2.35;1.17;;;23.30;35.40;;;;;;5025296;28;20080;-46
2021/12/12 07:29:35;;;;;;;1.90;0.93;;;23.40;35.30;;;;;;5025219;28;20041;-46
2021/12/12 07:32:03;;;;;;;2.63;0.98;;;23.40;35.20;;;;;;5025436;28;20544;-47
2021/12/12 07:34:28;;;;;;;2.10;0.90;;;23.50;35.20;;;;;;5025573;28;20029;-46
2021/12/12 07:37:00;;;;;;;2.30;1.02;;;23.50;35.10;;;;;;5040270;28;20036;-46
2021/12/12 07:39:28;;;;;;;2.05;1.00;;;23.60;35.10;;;;;;5025313;28;20116;-46
2021/12/12 07:41:56;;;;;;;2.10;0.90;;;23.60;35.00;;;;;;5024506;28;20350;-46
2021/12/12 07:44:26;;;;;;;2.00;1.00;;;23.70;35.10;;;;;;5024183;28;20087;-46
2021/12/12 07:46:52;;;;;;;2.05;1.10;;;23.70;35.00;;;;;;5025203;28;20033;-47
2021/12/12 07:49:26;;;;;;;2.03;1.10;;;23.80;34.90;;;;;;5025542;28;20029;-46
2021/12/12 07:51:52;;;;;;;2.30;1.10;;;23.80;34.80;;;;;;5043950;28;20500;-45
2021/12/12 07:54:18;;;;;;;1.95;1.00;;;23.90;34.80;;;;;;5044837;28;20032;-46
2021/12/12 07:56:45;;;;;;;2.28;1.10;;;23.90;34.70;;;;;;5031325;28;20032;-47
2021/12/12 07:59:13;;;;;;;1.70;1.00;;;24.00;34.70;;;;;;5024018;28;20116;-46
2021/12/12 08:01:42;;;;;;;2.78;1.25;;;24.00;34.60;;;;;;5023663;28;20033;-47
2021/12/12 08:04:09;;;;;;;2.28;1.05;;;24.00;34.60;;;;;;5022920;28;20026;-46
2021/12/12 08:06:36;;;;;;;2.33;1.10;;;24.10;34.60;;;;;;5024049;28;20108;-46
2021/12/12 08:09:07;;;;;;;2.05;0.90;;;24.10;34.60;;;;;;5023941;28;20727;-46
2021/12/12 08:11:33;;;;;;;2.40;1.10;;;24.20;34.60;;;;;;5023267;28;20033;-47
2021/12/12 08:14:02;;;;;;;2.55;1.42;;;24.20;34.60;;;;;;5022917;28;20033;-46
2021/12/12 08:16:28;;;;;;;2.65;1.10;;;24.30;34.50;;;;;;5020990;28;20507;-47
2021/12/12 08:18:57;;;;;;;2.25;1.20;;;24.30;34.60;;;;;;5023205;28;20117;-47
2021/12/12 08:21:23;;;;;;;2.75;1.30;;;24.30;34.50;;;;;;5023479;28;20459;-47
2021/12/12 08:23:49;;;;;;;2.42;1.30;;;24.40;34.70;;;;;;5022702;28;20060;-45
2021/12/12 08:26:17;;;;;;;4.80;1.40;;;24.40;34.70;;;;;;5022717;28;20030;-46
2021/12/12 08:28:43;;;;;;;3.03;1.50;;;24.40;34.60;;;;;;5022929;28;20026;-45
2021/12/12 08:31:11;;;;;;;2.95;1.63;;;24.40;34.30;;;;;;5023083;28;20022;-47
2021/12/12 08:33:37;;;;;;;3.88;2.22;;;24.50;34.20;;;;;;5022808;28;20632;-46
2021/12/12 08:36:03;;;;;;;3.83;2.10;;;24.50;34.00;;;;;;5022993;28;20021;-47
2021/12/12 08:38:30;;;;;;;3.22;1.88;;;24.50;34.20;;;;;;5023211;28;20029;-46
2021/12/12 08:40:59;;;;;;;3.65;2.08;;;24.50;34.30;;;;;;5022253;28;20034;-50
2021/12/12 08:43:26;;;;;;;4.25;2.10;;;24.50;34.40;;;;;;5014712;28;20052;-45
2021/12/12 08:45:58;;;;;;;4.55;2.28;;;24.50;34.40;;;;;;5022351;28;20404;-46
2021/12/12 08:48:27;;;;;;;4.53;2.58;;;24.50;34.40;;;;;;5023520;28;20025;-47
2021/12/12 08:50:57;;;;;;;4.45;2.45;;;24.50;34.40;;;;;;5032457;28;20040;-46
2021/12/12 08:53:24;;;;;;;5.35;2.30;;;24.50;34.40;;;;;;5023359;28;20033;-46
2021/12/12 08:55:54;;;;;;;5.10;2.65;;;24.50;34.20;;;;;;5023736;28;20107;-46
2021/12/12 08:58:23;;;;;;;3.67;1.90;;;24.60;34.90;;;;;;5021912;28;20115;-47
2021/12/12 09:00:54;;;;;;;4.43;2.45;;;24.50;34.10;;;;;;5022427;28;20056;-47
2021/12/12 09:03:32;;;;;;;3.72;2.30;;;24.50;34.20;;;;;;5021034;28;20056;-45
2021/12/12 09:05:58;;;;;;;5.30;2.83;;;24.50;34.00;;;;;;5022305;28;20083;-48
2021/12/12 09:08:28;;;;;;;4.80;2.15;;;24.50;33.90;;;;;;5022822;28;20033;-46
2021/12/12 09:11:17;;;;;;;4.68;2.60;;;24.50;34.00;;;;;;5022113;28;20115;-46
2021/12/12 09:13:53;;;;;;;4.72;2.47;;;24.50;34.00;;;;;;5013958;28;20502;-47
2021/12/12 09:16:24;;;;;;;6.47;2.85;;;24.50;34.20;;;;;;5023318;28;20435;-47
2021/12/12 09:19:06;;;;;;;4.90;2.78;;;24.40;34.10;;;;;;5022538;28;20025;-47
2021/12/12 09:22:04;;;;;;;5.93;2.75;;;24.40;34.20;;;;;;5019547;28;20398;-47
2021/12/12 09:24:30;;;;;;;5.55;2.88;;;24.40;34.30;;;;;;5020932;28;20034;-48
2021/12/12 09:27:05;;;;;;;5.20;2.53;;;24.40;34.30;;;;;;5025169;28;20094;-47
2021/12/12 09:29:51;;;;;;;4.70;2.50;;;24.30;34.30;;;;;;5027054;28;20052;-47
2021/12/12 09:32:24;;;;;;;7.60;2.38;;;24.30;34.40;;;;;;5027319;28;20104;-47
2021/12/12 09:35:06;;;;;;;4.45;2.08;;;24.30;34.30;;;;;;5027555;28;20585;-46
2021/12/12 09:37:56;;;;;;;5.75;2.50;;;24.30;34.40;;;;;;5027140;28;20034;-46
2021/12/12 09:40:27;;;;;;;4.22;1.88;;;24.30;34.50;;;;;;5027188;28;20033;-45
2021/12/12 09:43:04;;;;;;;3.80;2.00;;;24.30;34.60;;;;;;5023826;28;20406;-46
2021/12/12 09:45:58;;;;;;;4.68;2.10;;;24.30;34.70;;;;;;5027227;28;20032;-46
2021/12/12 09:51:57;;;;;;;3.63;1.83;;;24.30;34.70;;;;;;5044137;28;20171;-45
2021/12/12 09:54:50;;;;;;;3.92;1.83;;;24.30;34.80;;;;;;5013737;28;20036;-46
2021/12/12 09:57:22;;;;;;;3.97;2.00;;;24.30;34.80;;;;;;5017239;28;20034;-48
2021/12/12 10:00:07;;;;;;;4.20;2.20;;;24.30;34.80;;;;;;5015621;28;20044;-46
2021/12/12 10:02:41;;;;;;;4.50;1.52;;;24.30;34.80;;;;;;5026585;28;20026;-47
2021/12/12 10:05:26;;;;;;;4.28;2.08;;;24.40;34.70;;;;;;5026355;28;20112;-46
2021/12/12 10:08:09;;;;;;;5.43;2.22;;;24.40;34.80;;;;;;5026808;28;20561;-44
2021/12/12 10:10:52;;;;;;;4.68;2.67;;;24.50;34.80;;;;;;5026725;28;20041;-46
2021/12/12 10:13:32;;;;;;;3.05;1.77;;;24.50;34.80;;;;;;5022671;28;20037;-46
2021/12/12 10:16:06;;;;;;;3.58;1.77;;;24.50;34.80;;;;;;5023861;28;20068;-46
2021/12/12 10:18:49;;;;;;;4.05;1.92;;;24.60;34.80;;;;;;5025029;28;20048;-47
2021/12/12 10:21:33;;;;;;;;;;;24.60;34.80;;;;;;5026341;28;20029;-47
2021/12/12 10:24:10;;;;;;;4.20;1.63;;;24.70;34.80;;;;;;5026185;28;20159;-47
2021/12/12 10:26:59;;;;;;;3.17;1.88;;;24.70;35.00;;;;;;5025504;28;20482;-46
2021/12/12 10:29:33;;;;;;;4.00;1.80;;;24.80;35.00;;;;;;5024298;28;20195;-47
2021/12/12 10:32:10;;;;;;;7.47;2.58;;;24.80;35.00;;;;;;5025450;28;20114;-46
2021/12/12 10:34:42;;;;;;;5.47;2.10;;;24.90;35.20;;;;;;5025759;28;20513;-47
2021/12/12 10:37:25;;;;;;;3.40;1.73;;;24.90;35.10;;;;;;5025689;28;20523;-47
2021/12/12 10:40:20;;;;;;;3.40;1.58;;;24.90;35.10;;;;;;5024549;28;20576;-46
2021/12/12 10:42:50;;;;;;;3.08;1.40;;;25.00;35.10;;;;;;5025052;28;20053;-46
2021/12/12 10:45:24;;;;;;;3.42;1.80;;;25.00;35.10;;;;;;5018526;28;20534;-47
2021/12/12 10:48:04;;;;;;;3.83;1.70;;;25.00;35.10;;;;;;5026235;28;20041;-47
2021/12/12 10:50:54;;;;;;;3.60;1.70;;;25.00;35.10;;;;;;5034937;28;20024;-46
2021/12/12 10:53:20;;;;;;;3.47;1.45;;;25.10;35.00;;;;;;5027558;28;20031;-46
2021/12/12 10:55:49;;;;;;;3.55;1.95;;;25.20;34.90;;;;;;5043256;28;20025;-47
2021/12/12 10:58:26;;;;;;;3.75;3.35;;;25.20;34.80;;;;;;5025768;28;20051;-46
2021/12/12 11:00:59;;;;;;;8.02;4.80;;;25.20;34.70;;;;;;5025158;28;20034;-46
2021/12/12 11:03:48;;;;;;;6.55;5.80;;;25.30;34.70;;;;;;5025337;28;20029;-46
2021/12/12 11:06:19;;;;;;;15.00;13.80;;;25.30;34.60;;;;;;5025827;28;20025;-46
2021/12/12 11:09:12;;;;;;;11.70;10.80;;;25.40;35.30;;;;;;5025099;28;20485;-46
2021/12/12 11:11:48;;;;;;;8.43;7.65;;;25.50;35.00;;;;;;5025419;28;20025;-47
2021/12/12 11:14:24;;;;;;;6.60;6.00;;;25.50;34.90;;;;;;5024784;28;20160;-47
2021/12/12 11:16:53;;;;;;;6.40;5.80;;;25.60;35.20;;;;;;5025301;28;20018;-48
2021/12/12 11:19:53;;;;;;;5.63;5.03;;;25.60;35.20;;;;;;5023067;28;20029;-46
2021/12/12 11:22:34;;;;;;;4.22;3.70;;;25.60;35.40;;;;;;5021426;28;20489;-46
2021/12/12 11:25:27;;;;;;;4.75;3.42;;;25.60;35.00;;;;;;5019043;28;20030;-46
2021/12/12 11:28:04;;;;;;;3.97;2.90;;;25.70;35.40;;;;;;5019531;28;20038;-46
2021/12/12 11:30:57;;;;;;;4.15;3.20;;;25.70;35.10;;;;;;5021956;28;20037;-47
2021/12/12 11:33:25;;;;;;;;;;;25.70;35.00;;;;;;5024816;28;20266;-46
2021/12/12 11:35:55;;;;;;;4.30;2.30;;;25.70;34.70;;;;;;5024575;28;20286;-45
2021/12/12 11:38:26;;;;;;;4.47;2.90;;;25.70;34.60;;;;;;5017908;28;20037;-46
2021/12/12 11:41:07;;;;;;;4.68;3.00;;;25.80;34.60;;;;;;5020366;28;20025;-45
2021/12/12 11:43:42;;;;;;;4.10;2.88;;;25.80;34.60;;;;;;5024244;28;20030;-46
2021/12/12 11:46:18;;;;;;;3.85;2.40;;;25.80;34.70;;;;;;5014015;28;20021;-47
2021/12/12 11:49:05;;;;;;;4.03;2.33;;;25.80;34.80;;;;;;5023567;28;20482;-47
2021/12/12 11:51:39;;;;;;;3.70;2.50;;;25.80;34.80;;;;;;5032048;28;20029;-46
2021/12/12 11:54:16;;;;;;;3.28;2.22;;;25.90;34.70;;;;;;5023046;28;20034;-45
2021/12/12 11:56:59;;;;;;;3.50;2.25;;;25.80;34.70;;;;;;5024252;28;20065;-47
2021/12/12 12:00:04;;;;;;;3.45;2.40;;;25.90;34.70;;;;;;5018668;28;20033;-46
2021/12/12 12:03:23;;;;;;;3.90;2.10;;;25.90;35.00;;;;;;5017125;28;20122;-45
2021/12/12 12:06:07;;;;;;;3.92;2.03;;;25.90;34.80;;;;;;5022558;28;20492;-46
2021/12/12 12:08:56;;;;;;;3.15;1.95;;;25.90;34.70;;;;;;5024023;28;20033;-45
2021/12/12 12:12:08;;;;;;;2.58;1.70;;;25.90;34.50;;;;;;5024891;28;20038;-45
2021/12/12 12:15:02;;;;;;;3.13;1.98;;;25.90;34.50;;;;;;5022615;28;20024;-47
2021/12/12 12:17:57;;;;;;;3.15;1.90;;;25.80;34.40;;;;;;5022453;28;20033;-46
2021/12/12 12:20:29;;;;;;;3.10;1.70;;;25.80;34.30;;;;;;5020679;28;20401;-46
2021/12/12 12:23:41;;;;;;;2.75;1.75;;;25.80;34.40;;;;;;5022075;28;20041;-46
2021/12/12 12:29:05;;;;;;;2.97;1.70;;;25.80;34.20;;;;;;5022140;28;20100;-46
2021/12/12 12:31:34;;;;;;;3.08;1.85;;;25.80;34.10;;;;;;5022487;28;20716;-46
2021/12/12 12:34:18;;;;;;;5.60;2.92;;;25.80;34.10;;;;;;5019927;28;20049;-47
2021/12/12 12:37:32;;;;;;;10.98;3.33;;;25.80;34.00;;;;;;5022008;28;20527;-47
2021/12/12 12:40:36;;;;;;;6.00;2.88;;;25.70;34.00;;;;;;5023401;28;20095;-46
2021/12/12 12:43:24;;;;;;;5.60;2.65;;;25.70;33.90;;;;;;5003694;28;20025;-47
2021/12/12 12:46:31;;;;;;;6.18;3.00;;;25.70;33.80;;;;;;5021861;28;20025;-46
2021/12/12 12:49:34;;;;;;;5.55;3.00;;;25.70;33.70;;;;;;5022374;28;20521;-46
2021/12/12 12:52:34;;;;;;;6.15;2.67;;;25.70;33.70;;;;;;5004528;28;20470;-46
2021/12/12 12:54:59;;;;;;;6.00;2.90;;;25.70;33.70;;;;;;5016323;28;20026;-46
2021/12/12 12:57:36;;;;;;;5.13;2.95;;;25.70;33.70;;;;;;5024556;28;20037;-47
2021/12/12 13:00:10;;;;;;;5.82;2.47;;;25.60;33.70;;;;;;5024026;28;20053;-46
2021/12/12 13:03:13;;;;;;;5.10;2.50;;;25.60;33.60;;;;;;5025607;28;20022;-46
2021/12/12 13:06:04;;;;;;;6.22;2.53;;;25.70;33.70;;;;;;5028002;28;20498;-47
2021/12/12 13:08:51;;;;;;;6.97;2.80;;;25.60;33.70;;;;;;5026020;28;20029;-47
2021/12/12 13:11:34;;;;;;;6.20;3.38;;;25.60;33.60;;;;;;5026258;28;20239;-47
2021/12/12 13:14:42;;;;;;;7.60;2.90;;;25.60;33.60;;;;;;5026176;28;20029;-47
2021/12/12 13:17:16;;;;;;;6.18;2.70;;;25.60;33.80;;;;;;5033583;28;20056;-47
2021/12/12 13:20:38;;;;;;;6.47;2.80;;;25.60;33.90;;;;;;5027915;28;20038;-46
2021/12/12 13:23:41;;;;;;;5.45;2.38;;;25.60;33.90;;;;;;5080052;28;20396;-47
2021/12/12 13:26:26;;;;;;;5.53;2.13;;;25.60;33.80;;;;;;5003862;28;20029;-46
2021/12/12 13:29:36;;;;;;;5.63;3.05;;;25.60;33.70;;;;;;5024341;28;20041;-46
2021/12/12 13:32:27;;;;;;;6.40;2.63;;;25.60;33.70;;;;;;5025193;28;20025;-46
2021/12/12 13:35:19;;;;;;;5.38;2.45;;;25.50;33.80;;;;;;5026748;28;20155;-46
2021/12/12 13:38:00;;;;;;;5.80;2.28;;;25.60;33.80;;;;;;5006738;28;20554;-46
2021/12/12 13:41:05;;;;;;;4.28;2.15;;;25.50;33.90;;;;;;5017561;28;20032;-47
2021/12/12 13:43:54;;;;;;;6.22;2.47;;;25.50;33.80;;;;;;5026627;28;20112;-45
2021/12/12 13:47:02;;;;;;;4.47;2.42;;;25.50;33.90;;;;;;5007678;28;20079;-45
2021/12/12 13:49:38;;;;;;;3.42;1.90;;;25.50;33.90;;;;;;5024584;28;20056;-47
2021/12/12 13:52:11;;;;;;;3.50;1.80;;;25.50;33.90;;;;;;5025326;28;20037;-45
2021/12/12 13:54:50;;;;;;;4.50;2.00;;;25.50;34.00;;;;;;5024961;28;20040;-46